Time;durP1;ratioP1;P1;durP2;ratioP2;P2;SDS_P1;SDS_P2;PMS_P1;PMS_P2;Temp;Humidity;BMP_temperature;BMP_pressure;BME280_temperature;BME280_humidity;BME280_pressure;Samples;Min_cycle;Max_cycle;Signal;HPM_P1;HPM_P2
2022/07/02 00:00:04;;;;;;;2.92;1.40;;;17.40;99.90;;;;;;5097972;28;20480;-65
2022/07/02 00:02:34;;;;;;;4.28;1.73;;;17.30;99.90;;;;;;5095047;28;20077;-65
2022/07/02 00:05:06;;;;;;;3.03;1.70;;;17.30;99.90;;;;;;5076105;28;20035;-66
2022/07/02 00:07:32;;;;;;;3.80;1.70;;;17.20;99.90;;;;;;5038533;28;1054820;-64
2022/07/02 00:09:59;;;;;;;4.60;1.58;;;17.20;99.90;;;;;;5075834;28;20023;-65
2022/07/02 00:12:28;;;;;;;5.40;2.05;;;17.20;99.90;;;;;;5076361;28;20027;-66
2022/07/02 00:14:58;;;;;;;2.28;1.30;;;17.20;99.90;;;;;;5095274;28;20028;-66
2022/07/02 00:17:24;;;;;;;6.05;1.95;;;17.10;99.90;;;;;;5093986;28;20125;-63
2022/07/02 00:19:51;;;;;;;2.42;1.60;;;17.10;99.90;;;;;;5094446;28;20472;-64
2022/07/02 00:22:17;;;;;;;2.30;1.30;;;17.00;99.90;;;;;;5075160;28;20400;-64
2022/07/02 00:24:44;;;;;;;3.08;1.38;;;17.10;99.90;;;;;;5075341;28;20028;-64
2022/07/02 00:27:14;;;;;;;4.45;1.70;;;17.10;99.90;;;;;;5093604;28;20032;-64
2022/07/02 00:29:43;;;;;;;4.93;1.40;;;17.10;99.90;;;;;;5093977;28;20034;-64
2022/07/02 00:32:09;;;;;;;5.07;2.13;;;17.00;99.90;;;;;;5093696;28;20085;-65
2022/07/02 00:34:37;;;;;;;4.30;1.85;;;17.00;99.90;;;;;;5093621;28;20480;-64
2022/07/02 00:37:03;;;;;;;4.55;1.77;;;17.00;99.90;;;;;;5093751;28;20020;-64
2022/07/02 00:39:28;;;;;;;2.75;1.67;;;16.90;99.90;;;;;;5075568;28;20043;-65
2022/07/02 00:41:55;;;;;;;2.75;1.60;;;17.00;99.90;;;;;;5093621;28;20059;-64
2022/07/02 00:44:22;;;;;;;2.20;1.60;;;16.90;99.90;;;;;;5094000;28;20052;-64
2022/07/02 00:46:49;;;;;;;4.28;1.73;;;16.90;99.90;;;;;;5093509;28;20099;-64
2022/07/02 00:49:16;;;;;;;2.78;1.60;;;16.90;99.90;;;;;;5075198;28;20028;-64
2022/07/02 00:51:41;;;;;;;3.97;1.85;;;16.80;99.90;;;;;;5075268;28;20030;-64
2022/07/02 00:54:07;;;;;;;3.42;1.70;;;16.80;99.90;;;;;;5093397;28;20025;-64
2022/07/02 00:56:33;;;;;;;2.88;1.67;;;16.80;99.90;;;;;;5093437;28;20020;-64
2022/07/02 00:58:59;;;;;;;3.50;1.70;;;16.70;99.90;;;;;;5093466;28;20099;-65
2022/07/02 01:01:24;;;;;;;3.08;1.98;;;16.70;99.90;;;;;;5093408;28;20040;-65
2022/07/02 01:03:52;;;;;;;3.67;2.40;;;16.60;99.90;;;;;;5093462;28;20021;-64
2022/07/02 01:06:19;;;;;;;4.32;1.70;;;16.60;99.90;;;;;;5093220;28;20038;-65
2022/07/02 01:11:32;;;;;;;4.28;1.73;;;16.50;99.90;;;;;;5093644;28;20035;-65
2022/07/02 01:13:58;;;;;;;2.60;1.70;;;16.40;99.90;;;;;;5093090;28;20028;-65
2022/07/02 01:16:24;;;;;;;2.13;1.65;;;16.40;99.90;;;;;;5075659;28;20473;-65
2022/07/02 01:18:50;;;;;;;3.72;1.60;;;16.30;99.90;;;;;;5093105;28;20032;-65
2022/07/02 01:21:16;;;;;;;2.33;1.48;;;16.30;99.90;;;;;;5093126;28;20025;-65
2022/07/02 01:23:41;;;;;;;5.03;1.60;;;16.20;99.90;;;;;;5093812;28;20097;-65
2022/07/02 01:26:07;;;;;;;3.57;1.47;;;16.20;99.90;;;;;;5094162;28;20512;-65
2022/07/02 01:28:32;;;;;;;3.67;1.33;;;16.10;99.90;;;;;;5094194;28;20266;-65
2022/07/02 01:30:58;;;;;;;1.92;1.33;;;16.10;99.90;;;;;;5094701;28;20284;-65
2022/07/02 01:33:24;;;;;;;2.65;1.60;;;16.00;99.90;;;;;;5075724;28;20425;-65
2022/07/02 01:35:49;;;;;;;2.30;1.35;;;15.90;99.90;;;;;;5079420;28;20059;-65
2022/07/02 01:38:15;;;;;;;1.95;1.30;;;15.90;99.90;;;;;;5080639;28;20074;-65
2022/07/02 01:40:40;;;;;;;2.23;1.50;;;15.90;99.90;;;;;;5100387;28;20059;-65
2022/07/02 01:43:06;;;;;;;3.72;1.30;;;15.80;99.90;;;;;;5099084;28;20630;-65
2022/07/02 01:45:32;;;;;;;2.72;1.50;;;15.80;99.90;;;;;;5099429;28;20067;-65
2022/07/02 01:47:57;;;;;;;2.20;1.83;;;15.80;99.90;;;;;;5097297;28;20055;-65
2022/07/02 01:50:23;;;;;;;2.40;1.38;;;15.80;99.90;;;;;;5078150;28;20278;-65
2022/07/02 01:52:51;;;;;;;3.08;1.48;;;15.80;99.90;;;;;;5078170;28;20028;-65
2022/07/02 01:55:16;;;;;;;2.75;1.30;;;15.80;99.90;;;;;;5096259;28;20027;-65
2022/07/02 01:57:42;;;;;;;3.05;1.60;;;15.80;99.90;;;;;;5096893;28;20028;-65
2022/07/02 02:00:10;;;;;;;1.37;1.27;;;15.70;99.90;;;;;;5096359;28;20054;-65
2022/07/02 02:02:36;;;;;;;2.25;1.40;;;15.70;99.90;;;;;;5078100;28;20254;-65
2022/07/02 02:05:02;;;;;;;1.80;1.10;;;15.70;99.90;;;;;;5079137;28;20027;-65
2022/07/02 02:09:55;;;;;;;6.15;1.90;;;15.70;99.90;;;;;;5114904;22;20052;-66
2022/07/02 02:12:21;;;;;;;5.20;1.50;;;15.70;99.90;;;;;;5078597;28;20027;-66
2022/07/02 02:14:47;;;;;;;3.25;1.27;;;15.70;99.90;;;;;;5096372;28;20039;-65
2022/07/02 02:17:12;;;;;;;3.60;1.92;;;15.70;99.90;;;;;;5077759;28;20027;-65
2022/07/02 02:19:38;;;;;;;1.77;1.40;;;15.70;99.90;;;;;;5096017;28;20392;-66
2022/07/02 02:22:04;;;;;;;2.47;1.42;;;15.70;99.90;;;;;;5096258;28;20254;-66
2022/07/02 02:24:29;;;;;;;1.83;1.20;;;15.70;99.90;;;;;;5095891;28;20043;-66
2022/07/02 02:26:55;;;;;;;1.60;1.20;;;15.70;99.90;;;;;;5096061;28;20036;-66
2022/07/02 02:29:22;;;;;;;2.10;1.10;;;15.60;99.90;;;;;;5095522;28;20080;-66
2022/07/02 02:31:47;;;;;;;2.42;1.35;;;15.50;99.90;;;;;;5095558;28;20326;-66
2022/07/02 02:34:13;;;;;;;5.72;1.30;;;15.50;99.90;;;;;;5077145;28;20280;-66
2022/07/02 02:36:38;;;;;;;3.25;1.40;;;15.50;99.90;;;;;;5095749;28;20028;-65
2022/07/02 02:39:04;;;;;;;3.00;1.50;;;15.50;99.90;;;;;;5077317;28;20039;-65
2022/07/02 02:41:30;;;;;;;2.47;1.35;;;15.60;99.90;;;;;;5095504;28;20387;-65
2022/07/02 02:43:55;;;;;;;4.60;1.70;;;15.60;99.90;;;;;;5095307;28;20095;-67
2022/07/02 02:46:21;;;;;;;1.42;1.05;;;15.50;99.90;;;;;;5094116;28;20032;-66
2022/07/02 02:48:46;;;;;;;2.80;1.57;;;15.50;99.90;;;;;;5095229;28;20562;-66
2022/07/02 02:51:15;;;;;;;1.93;1.10;;;15.50;99.90;;;;;;5076836;28;20266;-66
2022/07/02 02:53:42;;;;;;;1.65;1.17;;;15.50;99.90;;;;;;5094971;28;20113;-66
2022/07/02 02:56:08;;;;;;;3.42;1.25;;;15.40;99.90;;;;;;5095065;28;20480;-65
2022/07/02 02:58:33;;;;;;;1.48;1.30;;;15.40;99.90;;;;;;5076440;28;20054;-66
2022/07/02 03:00:59;;;;;;;3.28;1.30;;;15.50;99.90;;;;;;5094541;28;20422;-66
2022/07/02 03:03:25;;;;;;;3.40;1.10;;;15.50;99.90;;;;;;5094851;28;20063;-66
2022/07/02 03:05:50;;;;;;;4.97;1.63;;;15.50;99.90;;;;;;5094704;28;20299;-66
2022/07/02 03:08:16;;;;;;;2.05;1.23;;;15.50;99.90;;;;;;5094469;28;20085;-67
2022/07/02 03:10:42;;;;;;;1.73;1.17;;;15.50;99.90;;;;;;5094581;28;20020;-66
2022/07/02 03:13:07;;;;;;;2.73;1.27;;;15.50;99.90;;;;;;5076138;28;20365;-66
2022/07/02 03:15:33;;;;;;;2.10;1.23;;;15.40;99.90;;;;;;5094444;28;20392;-66
2022/07/02 03:17:58;;;;;;;2.80;1.70;;;15.40;99.90;;;;;;5094455;28;20025;-66
2022/07/02 03:20:24;;;;;;;1.85;1.27;;;15.30;99.90;;;;;;5094463;28;20028;-66
2022/07/02 03:22:50;;;;;;;3.20;1.27;;;15.30;99.90;;;;;;5094067;28;20036;-66
2022/07/02 03:25:15;;;;;;;1.90;1.50;;;15.30;99.90;;;;;;5094088;28;20035;-66
2022/07/02 03:27:41;;;;;;;4.00;1.10;;;15.20;99.90;;;;;;5093941;28;20319;-66
2022/07/02 03:30:07;;;;;;;3.20;1.17;;;15.20;99.90;;;;;;5093960;28;20032;-66
2022/07/02 03:32:33;;;;;;;2.80;1.25;;;15.10;99.90;;;;;;5075727;28;20358;-66
2022/07/02 03:34:58;;;;;;;3.55;1.40;;;15.10;99.90;;;;;;5075929;28;20091;-66
2022/07/02 03:37:28;;;;;;;2.97;1.10;;;15.10;99.90;;;;;;5093880;28;20419;-66
2022/07/02 03:39:53;;;;;;;7.75;1.83;;;15.00;99.90;;;;;;5075879;28;20062;-65
2022/07/02 03:42:19;;;;;;;2.42;1.40;;;15.00;99.90;;;;;;5094249;28;20024;-66
2022/07/02 03:44:44;;;;;;;1.50;1.13;;;14.90;99.90;;;;;;5093993;28;20035;-66
2022/07/02 03:47:10;;;;;;;3.87;1.30;;;14.90;99.90;;;;;;5094129;28;20031;-66
2022/07/02 03:49:36;;;;;;;5.13;1.30;;;15.00;99.90;;;;;;5093845;28;20282;-66
2022/07/02 03:52:02;;;;;;;4.47;1.33;;;15.00;99.90;;;;;;5076855;28;20020;-65
2022/07/02 03:54:27;;;;;;;2.08;1.30;;;15.00;99.90;;;;;;5094857;28;20020;-65
2022/07/02 03:56:53;;;;;;;2.20;1.20;;;15.00;99.90;;;;;;5094626;28;20031;-66
2022/07/02 03:59:18;;;;;;;2.67;1.10;;;15.00;99.90;;;;;;5094867;28;20258;-66
2022/07/02 04:01:44;;;;;;;8.33;1.53;;;15.00;99.90;;;;;;5096643;28;20387;-66
2022/07/02 04:04:09;;;;;;;1.93;1.50;;;15.00;99.90;;;;;;5093800;28;20258;-66
2022/07/02 04:06:35;;;;;;;3.15;1.10;;;15.00;99.90;;;;;;5093760;28;20032;-66
2022/07/02 04:09:01;;;;;;;3.30;1.92;;;15.00;99.90;;;;;;5093469;28;20086;-65
2022/07/02 04:11:26;;;;;;;1.73;1.00;;;15.00;99.90;;;;;;5094303;28;20024;-66
2022/07/02 04:13:52;;;;;;;4.23;1.37;;;15.00;99.90;;;;;;5094049;28;20265;-67
2022/07/02 04:16:17;;;;;;;4.60;1.13;;;15.00;99.90;;;;;;5093518;28;20028;-66
2022/07/02 04:18:43;;;;;;;2.43;1.13;;;15.00;99.90;;;;;;5093669;28;20258;-65
2022/07/02 04:21:08;;;;;;;2.97;1.25;;;15.00;99.90;;;;;;5094057;28;20118;-66
2022/07/02 04:23:34;;;;;;;1.53;1.30;;;15.00;99.90;;;;;;5093269;28;20028;-66
2022/07/02 04:26:00;;;;;;;4.33;1.50;;;15.00;99.90;;;;;;5093360;28;20343;-66
2022/07/02 04:28:26;;;;;;;5.13;1.20;;;15.10;99.90;;;;;;5093056;28;20020;-66
2022/07/02 04:30:51;;;;;;;2.65;1.40;;;15.10;99.90;;;;;;5074808;28;20039;-67
2022/07/02 04:33:17;;;;;;;2.72;1.00;;;15.10;99.90;;;;;;5093280;28;20020;-66
2022/07/02 04:35:43;;;;;;;1.60;1.17;;;15.10;99.90;;;;;;5093562;28;20028;-67
2022/07/02 04:38:08;;;;;;;4.55;0.95;;;15.10;99.90;;;;;;5093560;28;20375;-66
2022/07/02 04:40:34;;;;;;;3.17;1.00;;;15.10;99.90;;;;;;5094021;28;20077;-71
2022/07/02 04:42:59;;;;;;;1.30;1.03;;;15.10;99.90;;;;;;5075652;28;20258;-71
2022/07/02 04:45:25;;;;;;;1.63;1.10;;;15.10;99.90;;;;;;5075587;28;20262;-70
2022/07/02 04:47:50;;;;;;;2.27;0.87;;;15.10;99.90;;;;;;5093978;28;20038;-70
2022/07/02 04:50:16;;;;;;;1.53;1.10;;;15.10;99.90;;;;;;5093809;28;20036;-70
2022/07/02 04:52:42;;;;;;;2.10;1.10;;;15.20;99.90;;;;;;5093294;28;20739;-71
2022/07/02 04:55:07;;;;;;;3.67;1.35;;;15.20;99.90;;;;;;5093184;28;20027;-71
2022/07/02 04:57:33;;;;;;;2.47;1.00;;;15.30;99.90;;;;;;5074866;28;20119;-68
2022/07/02 04:59:58;;;;;;;2.93;1.20;;;15.30;99.90;;;;;;5092863;28;20702;-69
2022/07/02 05:02:24;;;;;;;2.50;1.10;;;15.40;99.90;;;;;;5092742;28;20059;-69
2022/07/02 05:04:49;;;;;;;2.88;1.10;;;15.50;99.90;;;;;;5074837;28;20065;-67
2022/07/02 05:07:15;;;;;;;2.60;1.00;;;15.50;99.90;;;;;;5093371;28;20436;-68
2022/07/02 05:09:40;;;;;;;2.53;0.90;;;15.60;99.90;;;;;;5095224;28;20124;-67
2022/07/02 05:12:07;;;;;;;1.70;0.90;;;15.80;99.90;;;;;;5097414;28;20727;-67
2022/07/02 05:14:32;;;;;;;4.65;1.10;;;15.90;99.90;;;;;;5078812;28;20042;-67
2022/07/02 05:16:58;;;;;;;3.35;1.40;;;16.10;99.90;;;;;;5078700;28;20066;-68
2022/07/02 05:19:23;;;;;;;2.50;1.00;;;16.10;99.90;;;;;;5097306;28;20028;-69
2022/07/02 05:21:49;;;;;;;3.08;1.13;;;16.00;99.90;;;;;;5096586;28;20315;-69
2022/07/02 05:24:15;;;;;;;1.25;0.90;;;16.10;99.90;;;;;;5096715;28;20369;-71
2022/07/02 05:26:40;;;;;;;1.25;0.90;;;16.20;99.90;;;;;;5096735;28;20152;-71
2022/07/02 05:29:06;;;;;;;4.57;1.40;;;16.20;99.90;;;;;;5077709;28;20024;-70
2022/07/02 05:31:32;;;;;;;1.60;1.00;;;16.30;99.90;;;;;;5096301;28;20419;-70
2022/07/02 05:33:57;;;;;;;3.23;0.90;;;16.30;99.90;;;;;;5096258;28;20611;-69
2022/07/02 05:36:23;;;;;;;11.93;2.20;;;16.40;99.90;;;;;;5078027;28;20258;-70
2022/07/02 05:38:49;;;;;;;1.25;0.98;;;16.60;99.90;;;;;;5096335;28;20020;-71
2022/07/02 05:41:14;;;;;;;2.90;0.87;;;16.80;99.90;;;;;;5078297;28;20035;-70
2022/07/02 05:43:40;;;;;;;1.70;0.90;;;17.00;99.90;;;;;;5077974;28;20258;-70
2022/07/02 05:46:06;;;;;;;1.93;0.87;;;17.00;99.90;;;;;;5096159;28;20677;-70
2022/07/02 05:48:31;;;;;;;2.47;0.93;;;17.20;99.90;;;;;;5078183;28;20270;-70
2022/07/02 05:50:57;;;;;;;2.60;0.90;;;17.20;99.90;;;;;;5095957;28;20028;-70
2022/07/02 05:53:22;;;;;;;1.88;1.00;;;17.20;99.90;;;;;;5078001;28;20020;-70
2022/07/02 05:55:48;;;;;;;1.80;1.10;;;17.20;99.90;;;;;;5096272;28;20361;-69
2022/07/02 05:58:13;;;;;;;1.17;0.90;;;17.30;99.90;;;;;;5079447;28;20020;-70
2022/07/02 06:00:39;;;;;;;2.03;1.20;;;17.20;99.90;;;;;;5078580;28;20035;-70
2022/07/02 06:03:05;;;;;;;2.25;0.90;;;17.10;99.90;;;;;;5096328;28;20560;-70
2022/07/02 06:08:15;;;;;;;5.15;1.08;;;17.40;99.90;;;;;;5095987;28;20063;-69
2022/07/02 06:10:41;;;;;;;3.40;1.00;;;17.40;99.90;;;;;;5077708;28;20417;-70
2022/07/02 06:13:06;;;;;;;1.10;0.85;;;17.30;99.90;;;;;;5077345;28;20032;-69
2022/07/02 06:15:32;;;;;;;2.58;0.90;;;17.40;99.90;;;;;;5095652;28;20472;-69
2022/07/02 06:18:01;;;;;;;4.70;1.85;;;17.50;99.90;;;;;;5095327;28;20023;-69
2022/07/02 06:20:27;;;;;;;1.98;0.82;;;17.50;99.90;;;;;;5094387;28;20020;-70
2022/07/02 06:22:53;;;;;;;;;;;17.70;99.90;;;;;;5095817;28;20104;-70
2022/07/02 06:25:18;;;;;;;3.90;0.90;;;17.70;99.90;;;;;;5095302;28;19944;-70
2022/07/02 06:27:44;;;;;;;1.45;0.90;;;17.70;99.90;;;;;;5095234;28;20036;-69
2022/07/02 06:30:10;;;;;;;2.93;0.90;;;17.80;99.90;;;;;;5095243;28;20040;-70
2022/07/02 06:32:36;;;;;;;1.52;1.00;;;17.90;99.90;;;;;;5076848;28;20261;-70
2022/07/02 06:35:02;;;;;;;1.70;0.80;;;18.00;99.90;;;;;;5095262;28;20020;-70
2022/07/02 06:37:28;;;;;;;3.90;0.90;;;18.20;99.90;;;;;;5076663;28;20108;-70
2022/07/02 06:39:53;;;;;;;1.10;0.70;;;18.40;99.90;;;;;;5076985;28;20111;-70
2022/07/02 06:42:19;;;;;;;2.60;0.95;;;18.60;99.90;;;;;;5095480;28;20477;-70
2022/07/02 06:44:50;;;;;;;1.67;0.80;;;18.60;99.90;;;;;;5076771;28;20480;-70
2022/07/02 06:47:16;;;;;;;2.22;0.70;;;18.60;99.90;;;;;;5094738;28;20039;-69
2022/07/02 06:49:42;;;;;;;;;;;18.60;99.90;;;;;;5095208;28;20031;-68
2022/07/02 06:52:08;;;;;;;2.38;0.85;;;18.70;99.90;;;;;;5076639;28;19911;-68
2022/07/02 06:54:35;;;;;;;2.08;1.33;;;18.80;99.90;;;;;;5076574;28;20492;-69
2022/07/02 06:57:00;;;;;;;;;;;19.00;99.90;;;;;;5076581;28;20058;-69
2022/07/02 06:59:26;;;;;;;2.42;0.73;;;19.00;99.90;;;;;;5094398;28;19904;-69
2022/07/02 07:01:51;;;;;;;2.55;1.05;;;19.10;99.90;;;;;;5094425;28;20103;-69
2022/07/02 07:04:17;;;;;;;1.48;0.90;;;19.20;99.90;;;;;;5094326;28;20027;-69
2022/07/02 07:06:52;;;;;;;2.55;1.27;;;19.50;99.90;;;;;;5094705;28;20431;-69
2022/07/02 07:09:18;;;;;;;1.73;0.77;;;19.50;99.90;;;;;;5094203;28;20062;-69
2022/07/02 07:11:44;;;;;;;2.22;0.77;;;19.60;99.90;;;;;;5094317;28;20032;-69
2022/07/02 07:14:09;;;;;;;1.33;0.90;;;19.60;99.90;;;;;;5076299;28;20078;-69
2022/07/02 07:16:35;;;;;;;2.40;0.75;;;19.80;99.90;;;;;;5094266;28;20020;-69
2022/07/02 07:19:09;;;;;;;1.67;0.95;;;20.10;99.90;;;;;;5075711;28;20027;-69
2022/07/02 07:21:38;;;;;;;3.72;0.98;;;20.10;99.90;;;;;;5094376;28;20016;-68
2022/07/02 07:24:04;;;;;;;2.50;1.00;;;20.20;99.90;;;;;;5075776;28;20206;-70
2022/07/02 07:26:29;;;;;;;4.72;1.55;;;20.30;99.90;;;;;;5094846;28;20070;-70
2022/07/02 07:28:55;;;;;;;1.48;0.80;;;20.60;99.90;;;;;;5093804;28;20383;-70
2022/07/02 07:31:20;;;;;;;1.42;0.70;;;20.80;99.90;;;;;;5075088;28;20121;-70
2022/07/02 07:33:52;;;;;;;1.33;0.47;;;20.90;99.90;;;;;;5075397;28;20373;-71
2022/07/02 07:36:19;;;;;;;6.03;0.88;;;21.10;99.90;;;;;;5093469;28;20020;-70
2022/07/02 07:38:45;;;;;;;2.33;0.80;;;21.20;99.90;;;;;;5093321;28;20093;-69
2022/07/02 07:41:11;;;;;;;;;;;21.40;99.90;;;;;;5093797;28;20056;-69
2022/07/02 07:43:36;;;;;;;1.75;0.80;;;21.50;99.90;;;;;;5093357;28;19970;-68
2022/07/02 07:46:02;;;;;;;1.25;0.57;;;21.70;99.90;;;;;;5093498;28;20533;-70
2022/07/02 07:48:28;;;;;;;0.77;0.60;;;22.10;99.90;;;;;;5075154;28;20035;-70
2022/07/02 07:50:53;;;;;;;1.15;0.80;;;23.20;99.90;;;;;;5075318;28;20036;-70
2022/07/02 07:53:19;;;;;;;;;;;24.30;99.40;;;;;;5075638;28;20518;-71
2022/07/02 07:55:46;;;;;;;1.17;0.82;;;25.00;97.70;;;;;;5075078;28;19939;-71
2022/07/02 07:58:12;;;;;;;3.92;0.70;;;24.90;97.50;;;;;;5093284;28;20019;-71
2022/07/02 08:00:37;;;;;;;;;;;24.60;97.60;;;;;;5075605;28;20027;-71
2022/07/02 08:03:03;;;;;;;2.58;0.82;;;24.30;97.70;;;;;;5075360;28;19904;-70
2022/07/02 08:05:28;;;;;;;;;;;24.30;97.90;;;;;;5093916;28;20056;-70
2022/07/02 08:07:54;;;;;;;2.53;0.70;;;24.30;97.50;;;;;;5094473;28;19912;-71
2022/07/02 08:10:19;;;;;;;;;;;24.50;97.30;;;;;;5076096;28;20114;-68
2022/07/02 08:12:47;;;;;;;1.67;0.65;;;25.70;95.30;;;;;;5093041;28;19904;-66
2022/07/02 08:15:13;;;;;;;0.60;0.50;;;27.10;92.90;;;;;;5075090;28;20125;-66
2022/07/02 08:17:38;;;;;;;0.95;0.70;;;27.90;90.50;;;;;;5093398;28;20020;-66
2022/07/02 08:20:05;;;;;;;2.35;0.80;;;29.50;87.80;;;;;;5074759;28;20127;-67
2022/07/02 08:22:32;;;;;;;0.68;0.50;;;31.30;83.40;;;;;;5093126;28;20437;-67
2022/07/02 08:24:58;;;;;;;1.50;0.75;;;32.50;79.20;;;;;;5092765;28;20060;-64
2022/07/02 08:27:24;;;;;;;1.08;0.80;;;33.30;72.90;;;;;;5092760;28;20077;-66
2022/07/02 08:29:49;;;;;;;1.17;0.90;;;32.60;72.10;;;;;;5092410;28;20024;-66
2022/07/02 08:32:15;;;;;;;0.90;0.73;;;33.80;69.60;;;;;;5092500;28;20074;-66
2022/07/02 08:34:40;;;;;;;0.63;0.55;;;35.10;67.60;;;;;;5074773;28;20055;-66
2022/07/02 08:37:06;;;;;;;1.40;0.60;;;34.60;64.50;;;;;;5092851;28;20012;-65
2022/07/02 08:39:32;;;;;;;0.85;0.65;;;33.50;65.80;;;;;;5092707;28;20051;-66
2022/07/02 08:41:58;;;;;;;1.67;0.70;;;34.20;64.20;;;;;;5092746;28;20032;-67
2022/07/02 08:44:25;;;;;;;1.60;0.60;;;34.80;62.30;;;;;;5094360;28;20512;-68
2022/07/02 08:46:51;;;;;;;1.77;0.95;;;34.70;61.10;;;;;;5097122;28;20472;-67
2022/07/02 08:49:18;;;;;;;1.90;0.77;;;35.90;60.30;;;;;;5096870;28;20031;-68
2022/07/02 08:52:04;;;;;;;1.95;0.95;;;35.00;59.10;;;;;;5097030;28;20028;-67
2022/07/02 08:54:33;;;;;;;2.40;0.73;;;34.30;59.30;;;;;;5096782;28;20107;-67
2022/07/02 08:57:01;;;;;;;0.93;0.57;;;33.30;60.20;;;;;;5096833;28;20174;-68
2022/07/02 08:59:27;;;;;;;1.83;1.00;;;34.10;59.80;;;;;;5096619;28;20031;-68
2022/07/02 09:01:53;;;;;;;1.23;0.93;;;34.80;59.00;;;;;;5096617;28;20024;-67
2022/07/02 09:04:19;;;;;;;2.47;1.10;;;35.80;57.80;;;;;;5096672;28;20031;-67
2022/07/02 09:06:49;;;;;;;5.53;0.90;;;35.80;56.90;;;;;;5096762;28;20035;-67
2022/07/02 09:09:16;;;;;;;2.45;1.20;;;35.70;56.90;;;;;;5096494;28;20063;-67
2022/07/02 09:11:41;;;;;;;2.63;0.98;;;36.20;56.30;;;;;;5096543;28;20024;-68
2022/07/02 09:14:07;;;;;;;0.98;0.70;;;36.30;56.30;;;;;;5096528;28;20111;-67
2022/07/02 09:16:34;;;;;;;2.50;0.90;;;37.40;55.50;;;;;;5096442;28;20056;-68
2022/07/02 09:19:00;;;;;;;0.50;0.50;;;37.50;55.40;;;;;;5096350;28;20028;-68
2022/07/02 09:21:25;;;;;;;1.60;0.70;;;37.10;54.20;;;;;;5096191;28;20020;-67
2022/07/02 09:23:51;;;;;;;2.80;0.70;;;36.60;54.90;;;;;;5096539;28;20054;-66
2022/07/02 09:26:21;;;;;;;0.45;0.45;;;36.80;54.80;;;;;;5096325;28;20473;-66
2022/07/02 09:28:59;;;;;;;1.85;0.70;;;36.00;55.10;;;;;;5096837;28;20021;-68
2022/07/02 09:31:29;;;;;;;0.85;0.70;;;36.50;54.90;;;;;;5096295;28;20024;-67
2022/07/02 09:33:55;;;;;;;2.15;0.80;;;35.70;55.00;;;;;;5096043;28;20040;-64
2022/07/02 09:36:21;;;;;;;1.98;0.60;;;34.70;56.00;;;;;;5096431;28;20059;-67
2022/07/02 09:38:50;;;;;;;1.27;0.80;;;34.10;56.90;;;;;;5096195;28;20028;-66
2022/07/02 09:41:21;;;;;;;0.65;0.60;;;33.00;58.10;;;;;;5077743;28;20488;-65
2022/07/02 09:44:02;;;;;;;0.82;0.55;;;32.60;59.40;;;;;;5096062;28;20043;-66
2022/07/02 09:46:29;;;;;;;1.00;0.68;;;33.10;58.90;;;;;;5096295;28;20058;-67
2022/07/02 09:49:06;;;;;;;1.40;0.73;;;33.60;58.80;;;;;;5096704;28;20035;-66
2022/07/02 09:51:32;;;;;;;2.05;0.80;;;34.00;57.70;;;;;;5096832;28;20031;-66
2022/07/02 09:53:57;;;;;;;0.88;0.60;;;34.70;58.20;;;;;;5096152;28;20345;-66
2022/07/02 09:56:24;;;;;;;1.17;0.60;;;34.20;56.70;;;;;;5095353;28;20103;-65
2022/07/02 09:58:50;;;;;;;1.58;0.70;;;34.10;57.30;;;;;;5077484;28;20388;-67
2022/07/02 10:01:20;;;;;;;1.08;0.70;;;35.30;56.80;;;;;;5095914;28;20028;-67
2022/07/02 10:03:51;;;;;;;1.02;0.52;;;36.30;55.50;;;;;;5095684;28;20426;-67
2022/07/02 10:06:18;;;;;;;2.00;0.68;;;34.30;56.40;;;;;;5095784;28;20499;-67
2022/07/02 10:08:45;;;;;;;2.50;0.93;;;34.70;56.00;;;;;;5095092;28;20040;-67
2022/07/02 10:11:13;;;;;;;2.03;0.60;;;35.30;55.00;;;;;;5095388;28;20103;-67
2022/07/02 10:13:40;;;;;;;0.98;0.70;;;36.70;54.50;;;;;;5095451;28;20024;-66
2022/07/02 10:16:14;;;;;;;3.38;0.63;;;37.60;53.20;;;;;;5095570;28;20012;-67
2022/07/02 10:18:42;;;;;;;1.63;0.70;;;35.70;53.70;;;;;;5095268;28;20480;-67
2022/07/02 10:21:12;;;;;;;3.03;0.70;;;33.70;54.80;;;;;;5095459;28;20028;-67
2022/07/02 10:23:38;;;;;;;1.40;0.60;;;33.00;55.60;;;;;;5095222;28;20472;-66
2022/07/02 10:26:04;;;;;;;2.25;0.60;;;32.50;56.60;;;;;;5095097;28;20036;-67
2022/07/02 10:28:29;;;;;;;1.50;0.82;;;33.60;56.20;;;;;;5095319;28;20367;-66
2022/07/02 10:30:56;;;;;;;1.92;0.70;;;33.90;55.20;;;;;;5094955;28;20031;-66
2022/07/02 10:33:43;;;;;;;6.43;1.27;;;34.30;54.70;;;;;;5095066;28;20027;-67
2022/07/02 10:36:12;;;;;;;2.28;0.73;;;35.00;53.80;;;;;;5095236;28;20103;-66
2022/07/02 10:38:38;;;;;;;0.52;0.40;;;33.90;53.90;;;;;;5095232;28;20066;-67
2022/07/02 10:41:05;;;;;;;0.45;0.40;;;33.90;53.30;;;;;;5095046;28;20488;-67
2022/07/02 10:43:37;;;;;;;0.93;0.70;;;34.60;53.10;;;;;;5094871;28;20077;-67
2022/07/02 10:46:07;;;;;;;3.13;0.52;;;35.80;53.20;;;;;;5095357;28;20021;-67
2022/07/02 10:48:35;;;;;;;2.33;0.80;;;35.30;52.10;;;;;;5095180;28;20039;-66
2022/07/02 10:51:01;;;;;;;1.33;0.50;;;34.40;52.80;;;;;;5095006;28;20027;-67
2022/07/02 10:53:28;;;;;;;1.17;0.65;;;34.00;53.70;;;;;;5094649;28;20012;-67
2022/07/02 10:55:54;;;;;;;1.27;0.60;;;34.20;52.80;;;;;;5094666;28;20074;-68
2022/07/02 10:58:26;;;;;;;1.27;0.60;;;35.30;52.30;;;;;;5094493;28;20020;-67
2022/07/02 11:00:52;;;;;;;1.42;0.57;;;35.50;51.80;;;;;;5094643;28;20095;-66
2022/07/02 11:03:25;;;;;;;1.15;0.65;;;35.10;51.50;;;;;;5094784;28;20163;-68
2022/07/02 11:06:05;;;;;;;3.65;0.68;;;36.00;51.10;;;;;;5076421;28;20039;-67
2022/07/02 11:08:49;;;;;;;1.02;0.70;;;34.80;51.10;;;;;;5093578;28;20150;-67
2022/07/02 11:11:22;;;;;;;1.77;0.57;;;35.10;51.10;;;;;;5094371;28;20488;-68
2022/07/02 11:13:57;;;;;;;0.98;0.70;;;35.80;50.40;;;;;;5094691;28;20040;-67
2022/07/02 11:16:30;;;;;;;2.47;1.10;;;34.40;50.70;;;;;;5094425;28;20081;-67
2022/07/02 11:18:58;;;;;;;1.25;0.50;;;33.20;52.10;;;;;;5095160;28;20032;-68
2022/07/02 11:21:25;;;;;;;2.22;0.60;;;31.30;53.40;;;;;;5094446;28;20024;-66
2022/07/02 11:23:52;;;;;;;1.02;0.60;;;30.70;54.10;;;;;;5094215;28;20655;-67
2022/07/02 11:26:24;;;;;;;1.45;0.80;;;29.60;55.80;;;;;;5093999;28;20051;-67
2022/07/02 11:28:50;;;;;;;1.10;0.80;;;29.20;56.50;;;;;;5094599;28;20020;-65
2022/07/02 11:31:18;;;;;;;1.05;0.70;;;28.70;56.10;;;;;;5094623;28;20031;-65
2022/07/02 11:33:45;;;;;;;0.43;0.40;;;28.40;56.90;;;;;;5094093;28;20044;-65
2022/07/02 11:36:11;;;;;;;1.65;0.60;;;28.20;56.60;;;;;;5094226;28;20024;-65
2022/07/02 11:38:37;;;;;;;1.23;0.60;;;28.00;57.50;;;;;;5094006;28;20337;-64
2022/07/02 11:41:14;;;;;;;1.23;0.50;;;28.00;58.00;;;;;;5094248;28;20488;-65
2022/07/02 11:43:39;;;;;;;1.00;0.60;;;28.00;58.20;;;;;;5094576;28;20035;-65
2022/07/02 11:46:05;;;;;;;0.73;0.50;;;27.80;58.70;;;;;;5095205;28;20032;-65
2022/07/02 11:48:31;;;;;;;1.13;0.70;;;27.70;58.70;;;;;;5095133;28;20057;-64
2022/07/02 11:51:00;;;;;;;1.45;0.68;;;27.80;59.10;;;;;;5094135;28;20054;-65
2022/07/02 11:53:26;;;;;;;1.42;0.73;;;27.80;57.60;;;;;;5094664;28;20427;-65
2022/07/02 11:55:52;;;;;;;0.60;0.50;;;27.90;58.00;;;;;;5093662;28;20025;-66
2022/07/02 11:58:18;;;;;;;0.68;0.60;;;28.00;58.90;;;;;;5093316;28;20034;-66
2022/07/02 12:00:44;;;;;;;1.70;0.68;;;27.70;58.60;;;;;;5093198;28;20024;-65
2022/07/02 12:03:13;;;;;;;1.95;0.77;;;27.60;59.60;;;;;;5093503;28;20043;-65
2022/07/02 12:05:52;;;;;;;1.27;0.60;;;27.60;60.30;;;;;;5094023;28;20028;-65
2022/07/02 12:08:18;;;;;;;1.17;0.50;;;27.70;59.70;;;;;;5092982;28;20453;-65
2022/07/02 12:10:44;;;;;;;0.80;0.52;;;27.60;58.60;;;;;;5093200;28;20059;-65
2022/07/02 12:13:10;;;;;;;1.30;0.50;;;27.50;59.90;;;;;;5093359;28;20069;-65
2022/07/02 12:15:49;;;;;;;0.50;0.50;;;27.40;59.90;;;;;;5093353;28;20028;-65
2022/07/02 12:18:19;;;;;;;2.78;0.50;;;27.30;60.40;;;;;;5093039;28;20077;-65
2022/07/02 12:20:46;;;;;;;1.10;0.60;;;27.30;60.10;;;;;;5092936;28;20028;-66
2022/07/02 12:23:12;;;;;;;2.30;0.60;;;27.10;59.20;;;;;;5093328;28;20031;-65
2022/07/02 12:25:48;;;;;;;3.35;0.80;;;27.20;59.60;;;;;;5093167;28;20024;-66
2022/07/02 12:31:02;;;;;;;0.85;0.47;;;27.10;59.50;;;;;;5092918;28;20453;-64
2022/07/02 12:33:35;;;;;;;1.30;0.70;;;27.00;60.20;;;;;;5093096;28;20024;-65
2022/07/02 12:36:03;;;;;;;11.23;9.63;;;27.00;59.80;;;;;;5093252;28;20024;-66
2022/07/02 12:38:29;;;;;;;1.02;0.65;;;27.20;60.00;;;;;;5093224;28;20337;-65
2022/07/02 12:41:01;;;;;;;0.70;0.50;;;27.20;59.50;;;;;;5093016;28;20032;-65
2022/07/02 12:43:27;;;;;;;1.80;0.70;;;27.10;59.70;;;;;;5092564;28;20116;-63
2022/07/02 12:46:06;;;;;;;1.27;0.88;;;27.10;60.10;;;;;;5092707;28;20028;-65
2022/07/02 12:48:43;;;;;;;1.52;0.63;;;27.20;60.30;;;;;;5092769;28;20085;-65
2022/07/02 12:51:11;;;;;;;1.58;0.70;;;27.10;60.20;;;;;;5093355;28;20024;-64
2022/07/02 12:53:36;;;;;;;1.35;0.95;;;27.10;59.60;;;;;;5092708;28;20020;-66
2022/07/02 12:56:04;;;;;;;1.08;0.73;;;27.10;59.40;;;;;;5092854;28;20028;-65